sensor_id;sensor_type;location;lat;lon;timestamp;temperature;humidity
15947;DHT22;8072;52.554;7.966;2023-02-25T00:01:54;4.30;99.90
15947;DHT22;8072;52.554;7.966;2023-02-25T00:04:21;4.30;99.90
15947;DHT22;8072;52.554;7.966;2023-02-25T00:06:46;4.30;99.90
15947;DHT22;8072;52.554;7.966;2023-02-25T00:09:12;4.40;99.90
15947;DHT22;8072;52.554;7.966;2023-02-25T00:11:38;4.40;99.90
15947;DHT22;8072;52.554;7.966;2023-02-25T00:14:04;4.40;99.90
15947;DHT22;8072;52.554;7.966;2023-02-25T00:16:29;4.30;99.90
15947;DHT22;8072;52.554;7.966;2023-02-25T00:18:57;4.30;99.90
15947;DHT22;8072;52.554;7.966;2023-02-25T00:21:24;4.30;99.90
15947;DHT22;8072;52.554;7.966;2023-02-25T00:23:50;4.30;99.90
15947;DHT22;8072;52.554;7.966;2023-02-25T00:26:18;4.20;99.90
15947;DHT22;8072;52.554;7.966;2023-02-25T00:28:45;4.20;99.90
15947;DHT22;8072;52.554;7.966;2023-02-25T00:31:17;4.20;99.90
15947;DHT22;8072;52.554;7.966;2023-02-25T00:33:43;4.10;99.90
15947;DHT22;8072;52.554;7.966;2023-02-25T00:36:11;4.10;99.90
15947;DHT22;8072;52.554;7.966;2023-02-25T00:38:38;4.10;99.90
15947;DHT22;8072;52.554;7.966;2023-02-25T00:41:05;4.00;99.90
15947;DHT22;8072;52.554;7.966;2023-02-25T00:43:36;4.00;99.90
15947;DHT22;8072;52.554;7.966;2023-02-25T00:46:02;4.00;99.90
15947;DHT22;8072;52.554;7.966;2023-02-25T00:48:28;4.00;99.90
15947;DHT22;8072;52.554;7.966;2023-02-25T00:50:53;4.00;99.90
15947;DHT22;8072;52.554;7.966;2023-02-25T00:53:19;4.00;99.90
15947;DHT22;8072;52.554;7.966;2023-02-25T00:55:45;4.00;99.90
15947;DHT22;8072;52.554;7.966;2023-02-25T00:58:10;4.00;99.90
15947;DHT22;8072;52.554;7.966;2023-02-25T01:00:36;4.10;99.90
15947;DHT22;8072;52.554;7.966;2023-02-25T01:03:02;4.00;99.90
15947;DHT22;8072;52.554;7.966;2023-02-25T01:05:28;4.00;99.90
15947;DHT22;8072;52.554;7.966;2023-02-25T01:07:53;4.00;99.90
15947;DHT22;8072;52.554;7.966;2023-02-25T01:10:19;4.00;99.90
15947;DHT22;8072;52.554;7.966;2023-02-25T01:12:46;4.10;99.90
15947;DHT22;8072;52.554;7.966;2023-02-25T01:15:12;4.10;99.90
15947;DHT22;8072;52.554;7.966;2023-02-25T01:17:38;4.10;99.90
15947;DHT22;8072;52.554;7.966;2023-02-25T01:20:04;4.20;99.90
15947;DHT22;8072;52.554;7.966;2023-02-25T01:22:37;4.20;99.90
15947;DHT22;8072;52.554;7.966;2023-02-25T01:25:09;4.20;99.90
15947;DHT22;8072;52.554;7.966;2023-02-25T01:27:35;4.20;99.90
15947;DHT22;8072;52.554;7.966;2023-02-25T01:30:01;4.20;99.90
15947;DHT22;8072;52.554;7.966;2023-02-25T01:32:27;4.10;99.90
15947;DHT22;8072;52.554;7.966;2023-02-25T01:34:52;4.10;99.90
15947;DHT22;8072;52.554;7.966;2023-02-25T01:37:18;4.20;99.90
15947;DHT22;8072;52.554;7.966;2023-02-25T01:39:44;4.20;99.90
15947;DHT22;8072;52.554;7.966;2023-02-25T01:42:13;4.20;99.90
15947;DHT22;8072;52.554;7.966;2023-02-25T01:48:29;4.20;99.90
15947;DHT22;8072;52.554;7.966;2023-02-25T01:50:58;4.20;99.90
15947;DHT22;8072;52.554;7.966;2023-02-25T01:53:27;4.20;99.90
15947;DHT22;8072;52.554;7.966;2023-02-25T01:55:56;4.20;99.90
15947;DHT22;8072;52.554;7.966;2023-02-25T01:58:24;4.20;99.90
15947;DHT22;8072;52.554;7.966;2023-02-25T02:00:51;4.20;99.90
15947;DHT22;8072;52.554;7.966;2023-02-25T02:03:21;4.20;99.90
15947;DHT22;8072;52.554;7.966;2023-02-25T02:08:24;4.10;99.90
15947;DHT22;8072;52.554;7.966;2023-02-25T02:10:51;4.10;99.90
15947;DHT22;8072;52.554;7.966;2023-02-25T02:13:17;4.10;99.90
15947;DHT22;8072;52.554;7.966;2023-02-25T02:18:34;4.10;99.90
15947;DHT22;8072;52.554;7.966;2023-02-25T02:26:57;4.10;99.90
15947;DHT22;8072;52.554;7.966;2023-02-25T02:32:55;4.00;99.90
15947;DHT22;8072;52.554;7.966;2023-02-25T02:35:52;4.10;99.90
15947;DHT22;8072;52.554;7.966;2023-02-25T02:43:41;4.00;99.90
15947;DHT22;8072;52.554;7.966;2023-02-25T02:46:27;4.10;99.90
15947;DHT22;8072;52.554;7.966;2023-02-25T02:49:31;4.10;99.90
15947;DHT22;8072;52.554;7.966;2023-02-25T02:52:15;4.10;99.90
15947;DHT22;8072;52.554;7.966;2023-02-25T02:54:47;4.00;99.90
15947;DHT22;8072;52.554;7.966;2023-02-25T02:57:14;4.00;99.90
15947;DHT22;8072;52.554;7.966;2023-02-25T02:59:57;4.00;99.90
15947;DHT22;8072;52.554;7.966;2023-02-25T03:02:33;4.00;99.90
15947;DHT22;8072;52.554;7.966;2023-02-25T03:05:03;4.00;99.90
15947;DHT22;8072;52.554;7.966;2023-02-25T03:07:33;4.10;99.90
15947;DHT22;8072;52.554;7.966;2023-02-25T03:10:03;4.00;99.90
15947;DHT22;8072;52.554;7.966;2023-02-25T03:12:30;4.10;99.90
15947;DHT22;8072;52.554;7.966;2023-02-25T03:14:56;4.00;99.90
15947;DHT22;8072;52.554;7.966;2023-02-25T03:17:28;4.00;99.90
15947;DHT22;8072;52.554;7.966;2023-02-25T03:20:12;4.00;99.90
15947;DHT22;8072;52.554;7.966;2023-02-25T03:22:43;4.00;99.90
15947;DHT22;8072;52.554;7.966;2023-02-25T03:25:22;4.00;99.90
15947;DHT22;8072;52.554;7.966;2023-02-25T03:27:51;4.00;99.90
15947;DHT22;8072;52.554;7.966;2023-02-25T03:32:51;4.10;99.90
15947;DHT22;8072;52.554;7.966;2023-02-25T03:35:19;4.00;99.90
15947;DHT22;8072;52.554;7.966;2023-02-25T03:37:49;4.10;99.90
15947;DHT22;8072;52.554;7.966;2023-02-25T03:40:18;4.00;99.90
15947;DHT22;8072;52.554;7.966;2023-02-25T03:42:54;4.10;99.90
15947;DHT22;8072;52.554;7.966;2023-02-25T03:45:22;4.00;99.90
15947;DHT22;8072;52.554;7.966;2023-02-25T03:47:49;4.00;99.90
15947;DHT22;8072;52.554;7.966;2023-02-25T03:50:24;4.10;99.90
15947;DHT22;8072;52.554;7.966;2023-02-25T03:52:51;4.00;99.90
15947;DHT22;8072;52.554;7.966;2023-02-25T03:55:17;4.00;99.90
15947;DHT22;8072;52.554;7.966;2023-02-25T03:57:47;4.00;99.90
15947;DHT22;8072;52.554;7.966;2023-02-25T04:00:20;4.10;99.90
15947;DHT22;8072;52.554;7.966;2023-02-25T04:02:48;4.10;99.90
15947;DHT22;8072;52.554;7.966;2023-02-25T04:05:16;4.00;99.90
15947;DHT22;8072;52.554;7.966;2023-02-25T04:07:43;4.00;99.90
15947;DHT22;8072;52.554;7.966;2023-02-25T04:10:12;4.00;99.90
15947;DHT22;8072;52.554;7.966;2023-02-25T04:12:39;4.00;99.90
15947;DHT22;8072;52.554;7.966;2023-02-25T04:15:05;4.00;99.90
15947;DHT22;8072;52.554;7.966;2023-02-25T04:17:33;4.00;99.90
15947;DHT22;8072;52.554;7.966;2023-02-25T04:19:58;4.00;99.90
15947;DHT22;8072;52.554;7.966;2023-02-25T04:22:24;3.90;99.90
15947;DHT22;8072;52.554;7.966;2023-02-25T04:24:50;4.00;99.90
15947;DHT22;8072;52.554;7.966;2023-02-25T04:27:21;4.00;99.90
15947;DHT22;8072;52.554;7.966;2023-02-25T04:29:48;4.00;99.90
15947;DHT22;8072;52.554;7.966;2023-02-25T04:32:13;3.90;99.90
15947;DHT22;8072;52.554;7.966;2023-02-25T04:34:39;3.90;99.90
15947;DHT22;8072;52.554;7.966;2023-02-25T04:37:06;3.90;99.90
15947;DHT22;8072;52.554;7.966;2023-02-25T04:39:33;3.90;99.90
15947;DHT22;8072;52.554;7.966;2023-02-25T04:41:59;3.90;99.90
15947;DHT22;8072;52.554;7.966;2023-02-25T04:44:25;3.80;99.90
15947;DHT22;8072;52.554;7.966;2023-02-25T04:46:50;3.90;99.90
15947;DHT22;8072;52.554;7.966;2023-02-25T04:49:18;3.90;99.90
15947;DHT22;8072;52.554;7.966;2023-02-25T04:51:44;3.90;99.90
15947;DHT22;8072;52.554;7.966;2023-02-25T04:54:10;3.90;99.90
15947;DHT22;8072;52.554;7.966;2023-02-25T04:56:37;3.90;99.90
15947;DHT22;8072;52.554;7.966;2023-02-25T04:59:03;3.80;99.90
15947;DHT22;8072;52.554;7.966;2023-02-25T05:01:29;3.90;99.90
15947;DHT22;8072;52.554;7.966;2023-02-25T05:03:57;3.90;99.90
15947;DHT22;8072;52.554;7.966;2023-02-25T05:06:28;3.80;99.90
15947;DHT22;8072;52.554;7.966;2023-02-25T05:08:54;3.90;99.90
15947;DHT22;8072;52.554;7.966;2023-02-25T05:11:23;3.90;99.90
15947;DHT22;8072;52.554;7.966;2023-02-25T05:13:49;3.90;99.90
15947;DHT22;8072;52.554;7.966;2023-02-25T05:16:16;3.90;99.90
15947;DHT22;8072;52.554;7.966;2023-02-25T05:18:44;3.80;99.90
15947;DHT22;8072;52.554;7.966;2023-02-25T05:21:15;3.90;99.90
15947;DHT22;8072;52.554;7.966;2023-02-25T05:23:42;3.90;99.90
15947;DHT22;8072;52.554;7.966;2023-02-25T05:26:09;3.90;99.90
15947;DHT22;8072;52.554;7.966;2023-02-25T05:28:36;3.90;99.90
15947;DHT22;8072;52.554;7.966;2023-02-25T05:31:06;3.90;99.90
15947;DHT22;8072;52.554;7.966;2023-02-25T05:33:32;3.90;99.90
15947;DHT22;8072;52.554;7.966;2023-02-25T05:35:58;3.90;99.90
15947;DHT22;8072;52.554;7.966;2023-02-25T05:38:24;3.90;99.90
15947;DHT22;8072;52.554;7.966;2023-02-25T05:40:50;3.90;99.90
15947;DHT22;8072;52.554;7.966;2023-02-25T05:43:16;3.80;99.90
15947;DHT22;8072;52.554;7.966;2023-02-25T05:45:42;3.80;99.90
15947;DHT22;8072;52.554;7.966;2023-02-25T05:48:07;3.80;99.90
15947;DHT22;8072;52.554;7.966;2023-02-25T05:50:33;3.70;99.90
15947;DHT22;8072;52.554;7.966;2023-02-25T05:53:06;3.70;99.90
15947;DHT22;8072;52.554;7.966;2023-02-25T05:55:32;3.70;99.90
15947;DHT22;8072;52.554;7.966;2023-02-25T05:57:57;3.80;99.90
15947;DHT22;8072;52.554;7.966;2023-02-25T06:00:23;3.80;99.90
15947;DHT22;8072;52.554;7.966;2023-02-25T06:02:49;3.80;99.90
15947;DHT22;8072;52.554;7.966;2023-02-25T06:05:15;3.80;99.90
15947;DHT22;8072;52.554;7.966;2023-02-25T06:07:41;3.90;99.90
15947;DHT22;8072;52.554;7.966;2023-02-25T06:10:08;3.90;99.90
15947;DHT22;8072;52.554;7.966;2023-02-25T06:12:34;3.90;99.90
15947;DHT22;8072;52.554;7.966;2023-02-25T06:15:01;3.80;99.90
15947;DHT22;8072;52.554;7.966;2023-02-25T06:17:26;3.80;99.90
15947;DHT22;8072;52.554;7.966;2023-02-25T06:19:52;3.80;99.90
15947;DHT22;8072;52.554;7.966;2023-02-25T06:22:19;3.70;99.90
15947;DHT22;8072;52.554;7.966;2023-02-25T06:24:45;3.80;99.90
15947;DHT22;8072;52.554;7.966;2023-02-25T06:27:12;3.70;99.90
15947;DHT22;8072;52.554;7.966;2023-02-25T06:29:38;3.80;99.90
15947;DHT22;8072;52.554;7.966;2023-02-25T06:32:10;3.80;99.90
15947;DHT22;8072;52.554;7.966;2023-02-25T06:34:36;3.80;99.90
15947;DHT22;8072;52.554;7.966;2023-02-25T06:37:03;3.80;99.90
15947;DHT22;8072;52.554;7.966;2023-02-25T06:39:29;3.70;99.90
15947;DHT22;8072;52.554;7.966;2023-02-25T06:41:54;3.80;99.90
15947;DHT22;8072;52.554;7.966;2023-02-25T06:44:20;3.80;99.90
15947;DHT22;8072;52.554;7.966;2023-02-25T06:46:49;3.70;99.90
15947;DHT22;8072;52.554;7.966;2023-02-25T06:49:16;3.70;99.90
15947;DHT22;8072;52.554;7.966;2023-02-25T06:51:41;3.70;99.90
15947;DHT22;8072;52.554;7.966;2023-02-25T06:54:07;3.70;99.90
15947;DHT22;8072;52.554;7.966;2023-02-25T06:56:33;3.70;99.90
15947;DHT22;8072;52.554;7.966;2023-02-25T06:58:59;3.70;99.90
15947;DHT22;8072;52.554;7.966;2023-02-25T07:01:25;3.70;99.90
15947;DHT22;8072;52.554;7.966;2023-02-25T07:03:51;3.80;99.90
15947;DHT22;8072;52.554;7.966;2023-02-25T07:06:18;3.70;99.90
15947;DHT22;8072;52.554;7.966;2023-02-25T07:08:44;3.70;99.90
15947;DHT22;8072;52.554;7.966;2023-02-25T07:13:36;3.60;99.90
15947;DHT22;8072;52.554;7.966;2023-02-25T07:16:02;3.60;99.90
15947;DHT22;8072;52.554;7.966;2023-02-25T07:18:27;3.60;99.90
15947;DHT22;8072;52.554;7.966;2023-02-25T07:20:53;3.60;99.90
15947;DHT22;8072;52.554;7.966;2023-02-25T07:23:19;3.70;99.90
15947;DHT22;8072;52.554;7.966;2023-02-25T07:25:45;3.60;99.90
15947;DHT22;8072;52.554;7.966;2023-02-25T07:28:11;3.70;99.90
15947;DHT22;8072;52.554;7.966;2023-02-25T07:30:36;3.60;99.90
15947;DHT22;8072;52.554;7.966;2023-02-25T07:33:02;3.70;99.90
15947;DHT22;8072;52.554;7.966;2023-02-25T07:35:28;3.80;99.90
15947;DHT22;8072;52.554;7.966;2023-02-25T07:37:54;3.80;99.90
15947;DHT22;8072;52.554;7.966;2023-02-25T07:40:19;3.90;99.90
15947;DHT22;8072;52.554;7.966;2023-02-25T07:42:45;3.90;99.90
15947;DHT22;8072;52.554;7.966;2023-02-25T07:45:11;4.00;99.90
15947;DHT22;8072;52.554;7.966;2023-02-25T07:47:37;4.00;99.90
15947;DHT22;8072;52.554;7.966;2023-02-25T07:50:05;4.10;99.90
15947;DHT22;8072;52.554;7.966;2023-02-25T07:52:31;4.10;99.90
15947;DHT22;8072;52.554;7.966;2023-02-25T07:54:57;4.20;99.90
15947;DHT22;8072;52.554;7.966;2023-02-25T07:57:22;4.20;99.90
15947;DHT22;8072;52.554;7.966;2023-02-25T07:59:48;4.30;99.90
15947;DHT22;8072;52.554;7.966;2023-02-25T08:02:14;4.30;99.90
15947;DHT22;8072;52.554;7.966;2023-02-25T08:04:40;4.30;99.90
15947;DHT22;8072;52.554;7.966;2023-02-25T08:07:05;4.30;99.90
15947;DHT22;8072;52.554;7.966;2023-02-25T08:09:31;4.30;99.90
15947;DHT22;8072;52.554;7.966;2023-02-25T08:11:57;4.30;99.90
15947;DHT22;8072;52.554;7.966;2023-02-25T08:14:23;4.30;99.90
15947;DHT22;8072;52.554;7.966;2023-02-25T08:16:49;4.30;99.90
15947;DHT22;8072;52.554;7.966;2023-02-25T08:19:15;4.40;99.90
15947;DHT22;8072;52.554;7.966;2023-02-25T08:21:40;4.40;99.90
15947;DHT22;8072;52.554;7.966;2023-02-25T08:24:07;4.50;99.90
15947;DHT22;8072;52.554;7.966;2023-02-25T08:26:33;4.50;99.90
15947;DHT22;8072;52.554;7.966;2023-02-25T08:28:59;4.50;99.90
15947;DHT22;8072;52.554;7.966;2023-02-25T08:31:25;4.50;99.90
15947;DHT22;8072;52.554;7.966;2023-02-25T08:33:51;4.60;99.90
15947;DHT22;8072;52.554;7.966;2023-02-25T08:36:28;4.60;99.90
15947;DHT22;8072;52.554;7.966;2023-02-25T08:38:55;4.70;99.90
15947;DHT22;8072;52.554;7.966;2023-02-25T08:41:22;4.70;99.90
15947;DHT22;8072;52.554;7.966;2023-02-25T08:43:50;4.80;99.90
15947;DHT22;8072;52.554;7.966;2023-02-25T08:46:19;4.80;99.90
15947;DHT22;8072;52.554;7.966;2023-02-25T08:48:48;4.80;99.90
15947;DHT22;8072;52.554;7.966;2023-02-25T08:51:15;4.70;99.90
15947;DHT22;8072;52.554;7.966;2023-02-25T08:53:41;4.70;99.90
15947;DHT22;8072;52.554;7.966;2023-02-25T08:56:09;4.60;99.90
15947;DHT22;8072;52.554;7.966;2023-02-25T08:58:36;4.60;99.90
15947;DHT22;8072;52.554;7.966;2023-02-25T09:01:15;4.60;99.90
15947;DHT22;8072;52.554;7.966;2023-02-25T09:03:43;4.60;99.90
15947;DHT22;8072;52.554;7.966;2023-02-25T09:06:23;4.60;99.90
15947;DHT22;8072;52.554;7.966;2023-02-25T09:08:51;4.60;99.90
15947;DHT22;8072;52.554;7.966;2023-02-25T09:11:19;4.60;99.90
15947;DHT22;8072;52.554;7.966;2023-02-25T09:13:45;4.70;99.90
15947;DHT22;8072;52.554;7.966;2023-02-25T09:16:10;4.60;99.90
15947;DHT22;8072;52.554;7.966;2023-02-25T09:18:40;4.60;99.90
15947;DHT22;8072;52.554;7.966;2023-02-25T09:21:05;4.60;99.90
15947;DHT22;8072;52.554;7.966;2023-02-25T09:23:32;4.60;99.90
15947;DHT22;8072;52.554;7.966;2023-02-25T09:26:02;4.60;99.90
15947;DHT22;8072;52.554;7.966;2023-02-25T09:28:28;4.50;99.90
15947;DHT22;8072;52.554;7.966;2023-02-25T09:30:55;4.50;99.90
15947;DHT22;8072;52.554;7.966;2023-02-25T09:33:22;4.50;99.90
15947;DHT22;8072;52.554;7.966;2023-02-25T09:35:47;4.50;99.90
15947;DHT22;8072;52.554;7.966;2023-02-25T09:38:13;4.50;99.90
15947;DHT22;8072;52.554;7.966;2023-02-25T09:40:40;4.60;99.90
15947;DHT22;8072;52.554;7.966;2023-02-25T09:43:25;4.50;99.90
15947;DHT22;8072;52.554;7.966;2023-02-25T09:45:56;4.40;99.90
15947;DHT22;8072;52.554;7.966;2023-02-25T09:48:26;4.40;99.90
15947;DHT22;8072;52.554;7.966;2023-02-25T09:51:03;4.50;99.90
15947;DHT22;8072;52.554;7.966;2023-02-25T09:53:40;4.40;99.90
15947;DHT22;8072;52.554;7.966;2023-02-25T09:56:07;4.50;99.90
15947;DHT22;8072;52.554;7.966;2023-02-25T09:58:57;4.40;99.90
15947;DHT22;8072;52.554;7.966;2023-02-25T10:01:27;4.40;99.90
15947;DHT22;8072;52.554;7.966;2023-02-25T10:04:06;4.30;99.90
15947;DHT22;8072;52.554;7.966;2023-02-25T10:06:37;4.30;99.90
15947;DHT22;8072;52.554;7.966;2023-02-25T10:20:12;4.70;99.90
15947;DHT22;8072;52.554;7.966;2023-02-25T10:25:32;4.60;99.90
15947;DHT22;8072;52.554;7.966;2023-02-25T10:28:02;4.50;99.90
15947;DHT22;8072;52.554;7.966;2023-02-25T10:30:57;4.50;99.90
15947;DHT22;8072;52.554;7.966;2023-02-25T10:33:25;4.60;99.90
15947;DHT22;8072;52.554;7.966;2023-02-25T10:36:02;4.70;99.90
15947;DHT22;8072;52.554;7.966;2023-02-25T10:38:38;4.80;99.90
15947;DHT22;8072;52.554;7.966;2023-02-25T10:41:06;4.80;99.90
15947;DHT22;8072;52.554;7.966;2023-02-25T10:43:33;4.80;99.90
15947;DHT22;8072;52.554;7.966;2023-02-25T10:46:06;4.80;99.90
15947;DHT22;8072;52.554;7.966;2023-02-25T10:48:36;4.90;99.90
15947;DHT22;8072;52.554;7.966;2023-02-25T10:51:11;4.90;99.90
15947;DHT22;8072;52.554;7.966;2023-02-25T10:54:01;5.00;99.90
15947;DHT22;8072;52.554;7.966;2023-02-25T10:56:27;5.00;99.90
15947;DHT22;8072;52.554;7.966;2023-02-25T10:59:04;5.10;99.90
15947;DHT22;8072;52.554;7.966;2023-02-25T11:01:41;5.20;99.90
15947;DHT22;8072;52.554;7.966;2023-02-25T11:04:14;5.20;99.90
15947;DHT22;8072;52.554;7.966;2023-02-25T11:06:43;5.20;99.90
15947;DHT22;8072;52.554;7.966;2023-02-25T11:11:59;5.40;99.90
15947;DHT22;8072;52.554;7.966;2023-02-25T11:14:36;5.30;99.90
15947;DHT22;8072;52.554;7.966;2023-02-25T11:17:05;5.20;99.90
15947;DHT22;8072;52.554;7.966;2023-02-25T11:19:39;5.10;99.90
15947;DHT22;8072;52.554;7.966;2023-02-25T11:22:30;5.10;99.90
15947;DHT22;8072;52.554;7.966;2023-02-25T11:25:00;5.10;99.90
15947;DHT22;8072;52.554;7.966;2023-02-25T11:27:36;5.20;99.90
15947;DHT22;8072;52.554;7.966;2023-02-25T11:32:33;5.60;99.90
15947;DHT22;8072;52.554;7.966;2023-02-25T11:35:05;5.60;99.90
15947;DHT22;8072;52.554;7.966;2023-02-25T11:40:30;5.80;99.90
15947;DHT22;8072;52.554;7.966;2023-02-25T11:45:47;5.90;99.90
15947;DHT22;8072;52.554;7.966;2023-02-25T11:48:49;5.90;99.90
15947;DHT22;8072;52.554;7.966;2023-02-25T11:51:32;6.00;99.90
15947;DHT22;8072;52.554;7.966;2023-02-25T11:59:54;6.00;99.90
15947;DHT22;8072;52.554;7.966;2023-02-25T12:02:37;6.00;99.90
15947;DHT22;8072;52.554;7.966;2023-02-25T12:13:50;6.40;99.90
15947;DHT22;8072;52.554;7.966;2023-02-25T12:16:49;6.50;99.90
15947;DHT22;8072;52.554;7.966;2023-02-25T12:36:38;6.90;99.90
15947;DHT22;8072;52.554;7.966;2023-02-25T12:39:15;6.80;99.90
15947;DHT22;8072;52.554;7.966;2023-02-25T13:06:15;7.30;99.90
15947;DHT22;8072;52.554;7.966;2023-02-25T13:11:31;7.40;99.90
15947;DHT22;8072;52.554;7.966;2023-02-25T13:28:28;7.00;99.90
15947;DHT22;8072;52.554;7.966;2023-02-25T13:55:36;7.10;99.90
15947;DHT22;8072;52.554;7.966;2023-02-25T14:31:56;6.90;99.90
15947;DHT22;8072;52.554;7.966;2023-02-25T15:05:15;6.20;99.90
15947;DHT22;8072;52.554;7.966;2023-02-25T15:08:06;6.10;99.90
15947;DHT22;8072;52.554;7.966;2023-02-25T15:19:33;6.00;99.90
15947;DHT22;8072;52.554;7.966;2023-02-25T15:22:21;6.00;99.90
15947;DHT22;8072;52.554;7.966;2023-02-25T15:24:49;5.90;99.90
15947;DHT22;8072;52.554;7.966;2023-02-25T15:27:41;5.90;99.90
15947;DHT22;8072;52.554;7.966;2023-02-25T15:30:10;5.70;99.90
15947;DHT22;8072;52.554;7.966;2023-02-25T15:38:06;5.40;99.90
15947;DHT22;8072;52.554;7.966;2023-02-25T15:50:56;5.00;99.90
15947;DHT22;8072;52.554;7.966;2023-02-25T16:00:53;4.80;99.90
15947;DHT22;8072;52.554;7.966;2023-02-25T16:06:10;4.70;99.90
15947;DHT22;8072;52.554;7.966;2023-02-25T16:13:59;4.50;99.90
15947;DHT22;8072;52.554;7.966;2023-02-25T16:16:28;4.50;99.90
15947;DHT22;8072;52.554;7.966;2023-02-25T16:18:56;4.50;99.90
15947;DHT22;8072;52.554;7.966;2023-02-25T16:23:51;4.60;99.90
15947;DHT22;8072;52.554;7.966;2023-02-25T16:26:29;4.50;99.90
15947;DHT22;8072;52.554;7.966;2023-02-25T16:32:12;4.50;99.90
15947;DHT22;8072;52.554;7.966;2023-02-25T16:40:00;4.40;99.90
15947;DHT22;8072;52.554;7.966;2023-02-25T16:42:31;4.30;99.90
15947;DHT22;8072;52.554;7.966;2023-02-25T16:45:02;4.30;99.90
15947;DHT22;8072;52.554;7.966;2023-02-25T16:47:31;4.30;99.90
15947;DHT22;8072;52.554;7.966;2023-02-25T16:50:00;4.20;99.90
15947;DHT22;8072;52.554;7.966;2023-02-25T16:52:32;4.20;99.90
15947;DHT22;8072;52.554;7.966;2023-02-25T16:55:01;4.10;99.90
15947;DHT22;8072;52.554;7.966;2023-02-25T16:57:30;4.10;99.90
15947;DHT22;8072;52.554;7.966;2023-02-25T17:00:21;4.00;99.90
15947;DHT22;8072;52.554;7.966;2023-02-25T17:02:51;4.00;99.90
15947;DHT22;8072;52.554;7.966;2023-02-25T17:05:30;3.90;99.90
15947;DHT22;8072;52.554;7.966;2023-02-25T17:08:02;3.90;99.90
15947;DHT22;8072;52.554;7.966;2023-02-25T17:10:36;3.80;99.90
15947;DHT22;8072;52.554;7.966;2023-02-25T17:13:17;3.70;99.90
15947;DHT22;8072;52.554;7.966;2023-02-25T17:15:45;3.70;99.90
15947;DHT22;8072;52.554;7.966;2023-02-25T17:18:27;3.70;99.90
15947;DHT22;8072;52.554;7.966;2023-02-25T17:21:07;3.70;99.90
15947;DHT22;8072;52.554;7.966;2023-02-25T17:23:41;3.60;99.90
15947;DHT22;8072;52.554;7.966;2023-02-25T17:26:12;3.60;99.90
15947;DHT22;8072;52.554;7.966;2023-02-25T17:28:38;3.60;99.90
15947;DHT22;8072;52.554;7.966;2023-02-25T17:31:11;3.50;99.90
15947;DHT22;8072;52.554;7.966;2023-02-25T17:33:58;3.50;99.90
15947;DHT22;8072;52.554;7.966;2023-02-25T17:36:36;3.50;99.90
15947;DHT22;8072;52.554;7.966;2023-02-25T17:39:09;3.40;99.90
15947;DHT22;8072;52.554;7.966;2023-02-25T17:41:36;3.40;99.90
15947;DHT22;8072;52.554;7.966;2023-02-25T17:44:02;3.40;99.90
15947;DHT22;8072;52.554;7.966;2023-02-25T17:46:31;3.30;99.90
15947;DHT22;8072;52.554;7.966;2023-02-25T17:49:24;3.30;99.90
15947;DHT22;8072;52.554;7.966;2023-02-25T17:52:21;3.30;99.90
15947;DHT22;8072;52.554;7.966;2023-02-25T17:54:58;3.30;99.90
15947;DHT22;8072;52.554;7.966;2023-02-25T17:57:25;3.30;99.90
15947;DHT22;8072;52.554;7.966;2023-02-25T17:59:56;3.20;99.90
15947;DHT22;8072;52.554;7.966;2023-02-25T18:05:12;3.10;99.90
15947;DHT22;8072;52.554;7.966;2023-02-25T18:12:58;3.10;99.90
15947;DHT22;8072;52.554;7.966;2023-02-25T18:15:27;3.10;99.90
15947;DHT22;8072;52.554;7.966;2023-02-25T18:18:19;3.00;99.90
15947;DHT22;8072;52.554;7.966;2023-02-25T18:20:46;3.00;99.90
15947;DHT22;8072;52.554;7.966;2023-02-25T18:23:24;3.00;99.90
15947;DHT22;8072;52.554;7.966;2023-02-25T18:28:45;2.90;99.90
15947;DHT22;8072;52.554;7.966;2023-02-25T18:31:12;2.90;99.90
15947;DHT22;8072;52.554;7.966;2023-02-25T18:33:44;2.80;99.90
15947;DHT22;8072;52.554;7.966;2023-02-25T18:36:19;2.80;99.90
15947;DHT22;8072;52.554;7.966;2023-02-25T18:38:48;2.80;99.90
15947;DHT22;8072;52.554;7.966;2023-02-25T18:41:14;2.70;99.90
15947;DHT22;8072;52.554;7.966;2023-02-25T18:43:41;2.60;99.90
15947;DHT22;8072;52.554;7.966;2023-02-25T18:46:08;2.60;99.90
15947;DHT22;8072;52.554;7.966;2023-02-25T18:48:34;2.50;99.90
15947;DHT22;8072;52.554;7.966;2023-02-25T18:51:02;2.40;99.90
15947;DHT22;8072;52.554;7.966;2023-02-25T18:53:30;2.40;99.90
15947;DHT22;8072;52.554;7.966;2023-02-25T18:55:56;2.30;99.90
15947;DHT22;8072;52.554;7.966;2023-02-25T18:58:22;2.20;99.90
15947;DHT22;8072;52.554;7.966;2023-02-25T19:00:56;2.20;99.90
15947;DHT22;8072;52.554;7.966;2023-02-25T19:03:37;2.20;99.90
15947;DHT22;8072;52.554;7.966;2023-02-25T19:06:04;2.20;99.90
15947;DHT22;8072;52.554;7.966;2023-02-25T19:08:31;2.20;99.90
15947;DHT22;8072;52.554;7.966;2023-02-25T19:10:57;2.20;99.90
15947;DHT22;8072;52.554;7.966;2023-02-25T19:15:52;2.10;99.90
15947;DHT22;8072;52.554;7.966;2023-02-25T19:18:17;2.00;99.90
15947;DHT22;8072;52.554;7.966;2023-02-25T19:20:43;2.00;99.90
15947;DHT22;8072;52.554;7.966;2023-02-25T19:23:14;2.00;99.90
15947;DHT22;8072;52.554;7.966;2023-02-25T19:25:42;1.90;99.90
15947;DHT22;8072;52.554;7.966;2023-02-25T19:28:08;1.90;99.90
15947;DHT22;8072;52.554;7.966;2023-02-25T19:30:37;1.90;99.90
15947;DHT22;8072;52.554;7.966;2023-02-25T19:33:05;1.90;99.90
15947;DHT22;8072;52.554;7.966;2023-02-25T19:35:33;1.90;99.90
15947;DHT22;8072;52.554;7.966;2023-02-25T19:38:00;1.90;99.90
15947;DHT22;8072;52.554;7.966;2023-02-25T19:40:26;1.80;99.90
15947;DHT22;8072;52.554;7.966;2023-02-25T19:42:53;1.80;99.90
15947;DHT22;8072;52.554;7.966;2023-02-25T19:45:21;1.80;99.90
15947;DHT22;8072;52.554;7.966;2023-02-25T19:47:47;1.70;99.90
15947;DHT22;8072;52.554;7.966;2023-02-25T19:50:15;1.70;99.90
15947;DHT22;8072;52.554;7.966;2023-02-25T19:52:42;1.70;99.90
15947;DHT22;8072;52.554;7.966;2023-02-25T19:55:10;1.70;99.90
15947;DHT22;8072;52.554;7.966;2023-02-25T19:57:37;1.70;99.90
15947;DHT22;8072;52.554;7.966;2023-02-25T20:00:06;1.80;99.90
15947;DHT22;8072;52.554;7.966;2023-02-25T20:02:32;1.70;99.90
15947;DHT22;8072;52.554;7.966;2023-02-25T20:04:58;1.70;99.90
15947;DHT22;8072;52.554;7.966;2023-02-25T20:07:24;1.70;99.90
15947;DHT22;8072;52.554;7.966;2023-02-25T20:09:50;1.80;99.90
15947;DHT22;8072;52.554;7.966;2023-02-25T20:12:16;1.80;99.90
15947;DHT22;8072;52.554;7.966;2023-02-25T20:14:41;1.80;99.90
15947;DHT22;8072;52.554;7.966;2023-02-25T20:17:08;1.80;99.90
15947;DHT22;8072;52.554;7.966;2023-02-25T20:19:34;1.80;99.90
15947;DHT22;8072;52.554;7.966;2023-02-25T20:22:02;1.70;99.90
15947;DHT22;8072;52.554;7.966;2023-02-25T20:24:28;1.70;99.90
15947;DHT22;8072;52.554;7.966;2023-02-25T20:26:54;1.70;99.90
15947;DHT22;8072;52.554;7.966;2023-02-25T20:29:20;1.70;99.90
15947;DHT22;8072;52.554;7.966;2023-02-25T20:31:46;1.60;99.90
15947;DHT22;8072;52.554;7.966;2023-02-25T20:34:18;1.60;99.90
15947;DHT22;8072;52.554;7.966;2023-02-25T20:42:15;1.50;99.90
15947;DHT22;8072;52.554;7.966;2023-02-25T20:44:45;1.50;99.90
15947;DHT22;8072;52.554;7.966;2023-02-25T20:47:19;1.50;99.90
15947;DHT22;8072;52.554;7.966;2023-02-25T20:49:46;1.50;99.90
15947;DHT22;8072;52.554;7.966;2023-02-25T20:52:13;1.50;99.90
15947;DHT22;8072;52.554;7.966;2023-02-25T20:54:40;1.50;99.90
15947;DHT22;8072;52.554;7.966;2023-02-25T20:57:06;1.40;99.90
15947;DHT22;8072;52.554;7.966;2023-02-25T20:59:33;1.40;99.90
15947;DHT22;8072;52.554;7.966;2023-02-25T21:01:59;1.40;99.90
15947;DHT22;8072;52.554;7.966;2023-02-25T21:04:26;1.30;99.90